createdAt,value
2022-12-17T00:01:48.932Z,1.00
2022-12-17T00:07:20.665Z,1.00
2022-12-17T00:12:52.123Z,1.00
2022-12-17T00:18:24.238Z,1.00
2022-12-17T00:23:57.165Z,0.00
2022-12-17T00:29:29.033Z,1.00
2022-12-17T00:35:00.966Z,0.00
2022-12-17T00:40:32.830Z,1.00
2022-12-17T00:46:04.575Z,1.00
2022-12-17T00:51:36.256Z,0.00
2022-12-17T00:57:08.167Z,1.00
2022-12-17T01:02:40.029Z,1.00
2022-12-17T01:08:11.999Z,1.00
2022-12-17T01:13:43.541Z,0.00
2022-12-17T01:19:15.349Z,1.00
2022-12-17T01:24:47.249Z,1.00
2022-12-17T01:35:48.697Z,1.00
2022-12-17T01:41:20.521Z,1.00
2022-12-17T01:46:52.476Z,1.00
2022-12-17T01:52:24.390Z,1.00
2022-12-17T01:57:56.118Z,1.00
2022-12-17T02:03:27.666Z,1.00
2022-12-17T02:08:59.185Z,0.00
2022-12-17T02:14:31.371Z,1.00
2022-12-17T02:20:03.079Z,1.00
2022-12-17T02:25:34.979Z,1.00
2022-12-17T02:31:06.789Z,1.00
2022-12-17T02:36:38.434Z,1.00
2022-12-17T02:42:09.923Z,1.00
2022-12-17T02:47:41.497Z,1.00
2022-12-17T02:53:13.527Z,1.00
2022-12-17T02:58:45.126Z,1.00
2022-12-17T03:04:16.726Z,0.00
2022-12-17T03:09:48.611Z,1.00
2022-12-17T03:15:20.778Z,1.00
2022-12-17T03:20:52.897Z,1.00
2022-12-17T03:26:24.499Z,1.00
2022-12-17T03:31:56.411Z,0.00
2022-12-17T03:37:28.188Z,1.00
2022-12-17T03:42:59.888Z,1.00
2022-12-17T03:48:31.902Z,1.00
2022-12-17T03:54:03.781Z,1.00
2022-12-17T03:59:35.571Z,1.00
2022-12-17T04:05:07.245Z,1.00
2022-12-17T04:10:38.918Z,0.00
2022-12-17T04:16:10.810Z,1.00
2022-12-17T04:21:42.789Z,1.00
2022-12-17T04:27:14.499Z,1.00
2022-12-17T04:32:46.412Z,1.00
2022-12-17T04:38:20.046Z,0.00
2022-12-17T04:43:51.776Z,1.00
2022-12-17T04:49:23.588Z,1.00
2022-12-17T04:54:55.187Z,0.00
2022-12-17T05:00:27.037Z,0.00
2022-12-17T05:05:58.619Z,0.00
2022-12-17T05:11:30.500Z,1.00
2022-12-17T05:17:02.634Z,1.00
2022-12-17T05:22:34.535Z,1.00
2022-12-17T05:28:06.200Z,1.00
2022-12-17T05:33:38.486Z,1.00
2022-12-17T05:39:09.771Z,1.00
2022-12-17T05:44:41.705Z,0.00
2022-12-17T05:50:13.340Z,0.00
2022-12-17T05:55:45.162Z,1.00
2022-12-17T06:01:16.969Z,0.00
2022-12-17T06:06:48.850Z,1.00
2022-12-17T06:12:20.665Z,0.00
2022-12-17T06:17:52.527Z,2.00
2022-12-17T06:23:24.584Z,5.00
2022-12-17T06:28:56.372Z,15.00
2022-12-17T06:34:28.351Z,52.00
2022-12-17T06:39:59.843Z,108.00
2022-12-17T06:45:31.916Z,205.00
2022-12-17T06:51:03.679Z,377.00
2022-12-17T06:56:35.657Z,605.00
2022-12-17T07:02:07.969Z,924.00
2022-12-17T07:07:39.521Z,1388.00
2022-12-17T07:13:11.311Z,2474.00
2022-12-17T07:18:43.110Z,3087.00
2022-12-17T07:24:14.896Z,3904.00
2022-12-17T07:29:46.621Z,4475.00
2022-12-17T07:35:18.265Z,4887.00
2022-12-17T07:40:50.336Z,4874.00
2022-12-17T07:46:22.162Z,5695.00
2022-12-17T07:51:53.946Z,6088.00
2022-12-17T07:57:25.691Z,6972.00
2022-12-17T08:02:57.808Z,8799.00
2022-12-17T08:13:59.159Z,13280.00
2022-12-17T08:19:31.426Z,14383.00
2022-12-17T08:25:03.274Z,15342.00
2022-12-17T08:30:35.156Z,16683.00
2022-12-17T08:36:07.024Z,17055.00
2022-12-17T08:41:38.599Z,17590.00
2022-12-17T08:47:10.650Z,17647.00
2022-12-17T08:52:42.241Z,17707.00
2022-12-17T08:58:18.086Z,17565.00
2022-12-17T09:00:51.407Z,17646.00
2022-12-17T09:06:27.644Z,17831.00
2022-12-17T09:12:04.446Z,17869.00
2022-12-17T09:17:36.297Z,18200.00
2022-12-17T09:23:08.064Z,18018.00
2022-12-17T09:28:42.298Z,18124.00
